sensor_id;sensor_type;location;lat;lon;timestamp;P1;durP1;ratioP1;P2;durP2;ratioP2
6043;SDS011;3050;42.660;23.276;2023-12-29T00:02:05;15.20;;;6.50;;
6043;SDS011;3050;42.660;23.276;2023-12-29T00:04:33;8.00;;;5.27;;
6043;SDS011;3050;42.660;23.276;2023-12-29T00:07:01;8.03;;;4.93;;
6043;SDS011;3050;42.660;23.276;2023-12-29T00:09:31;9.97;;;5.53;;
6043;SDS011;3050;42.660;23.276;2023-12-29T00:12:07;7.83;;;4.83;;
6043;SDS011;3050;42.660;23.276;2023-12-29T00:14:36;5.70;;;4.10;;
6043;SDS011;3050;42.660;23.276;2023-12-29T00:17:05;6.63;;;4.80;;
6043;SDS011;3050;42.660;23.276;2023-12-29T00:19:34;9.03;;;5.60;;
6043;SDS011;3050;42.660;23.276;2023-12-29T00:22:04;8.23;;;4.87;;
6043;SDS011;3050;42.660;23.276;2023-12-29T00:24:34;8.67;;;5.73;;
6043;SDS011;3050;42.660;23.276;2023-12-29T00:27:04;9.03;;;5.13;;
6043;SDS011;3050;42.660;23.276;2023-12-29T00:29:35;9.83;;;5.23;;
6043;SDS011;3050;42.660;23.276;2023-12-29T00:32:03;18.17;;;5.33;;
6043;SDS011;3050;42.660;23.276;2023-12-29T00:34:33;8.87;;;4.57;;
6043;SDS011;3050;42.660;23.276;2023-12-29T00:37:04;10.17;;;5.23;;
6043;SDS011;3050;42.660;23.276;2023-12-29T00:39:31;12.67;;;5.93;;
6043;SDS011;3050;42.660;23.276;2023-12-29T00:42:05;8.07;;;5.17;;
6043;SDS011;3050;42.660;23.276;2023-12-29T00:44:38;11.63;;;5.00;;
6043;SDS011;3050;42.660;23.276;2023-12-29T00:47:06;11.40;;;6.93;;
6043;SDS011;3050;42.660;23.276;2023-12-29T00:49:38;25.07;;;10.20;;
6043;SDS011;3050;42.660;23.276;2023-12-29T00:52:07;32.50;;;12.90;;
6043;SDS011;3050;42.660;23.276;2023-12-29T00:54:38;33.77;;;13.70;;
6043;SDS011;3050;42.660;23.276;2023-12-29T00:57:09;22.77;;;8.17;;
6043;SDS011;3050;42.660;23.276;2023-12-29T00:59:40;27.27;;;10.13;;
6043;SDS011;3050;42.660;23.276;2023-12-29T01:02:09;12.63;;;7.00;;
6043;SDS011;3050;42.660;23.276;2023-12-29T01:04:40;12.63;;;6.93;;
6043;SDS011;3050;42.660;23.276;2023-12-29T01:07:08;17.27;;;8.67;;
6043;SDS011;3050;42.660;23.276;2023-12-29T01:09:37;14.97;;;6.83;;
6043;SDS011;3050;42.660;23.276;2023-12-29T01:12:05;17.23;;;5.87;;
6043;SDS011;3050;42.660;23.276;2023-12-29T01:14:39;10.77;;;5.87;;
6043;SDS011;3050;42.660;23.276;2023-12-29T01:17:07;13.27;;;5.70;;
6043;SDS011;3050;42.660;23.276;2023-12-29T01:19:37;13.67;;;6.50;;
6043;SDS011;3050;42.660;23.276;2023-12-29T01:22:05;8.03;;;5.80;;
6043;SDS011;3050;42.660;23.276;2023-12-29T01:24:35;17.70;;;7.27;;
6043;SDS011;3050;42.660;23.276;2023-12-29T01:27:02;9.43;;;7.53;;
6043;SDS011;3050;42.660;23.276;2023-12-29T01:29:31;18.17;;;7.07;;
6043;SDS011;3050;42.660;23.276;2023-12-29T01:32:04;6.80;;;5.13;;
6043;SDS011;3050;42.660;23.276;2023-12-29T01:34:37;11.00;;;6.63;;
6043;SDS011;3050;42.660;23.276;2023-12-29T01:37:07;12.77;;;6.77;;
6043;SDS011;3050;42.660;23.276;2023-12-29T01:39:35;10.90;;;6.50;;
6043;SDS011;3050;42.660;23.276;2023-12-29T01:42:06;18.97;;;9.33;;
6043;SDS011;3050;42.660;23.276;2023-12-29T01:44:37;11.07;;;6.37;;
6043;SDS011;3050;42.660;23.276;2023-12-29T01:47:13;16.30;;;7.40;;
6043;SDS011;3050;42.660;23.276;2023-12-29T01:49:41;13.37;;;6.80;;
6043;SDS011;3050;42.660;23.276;2023-12-29T01:52:13;19.23;;;6.23;;
6043;SDS011;3050;42.660;23.276;2023-12-29T01:54:42;13.47;;;7.50;;
6043;SDS011;3050;42.660;23.276;2023-12-29T01:57:11;23.50;;;7.87;;
6043;SDS011;3050;42.660;23.276;2023-12-29T01:59:41;11.13;;;7.30;;
6043;SDS011;3050;42.660;23.276;2023-12-29T02:02:13;12.47;;;5.97;;
6043;SDS011;3050;42.660;23.276;2023-12-29T02:04:41;12.60;;;6.30;;
6043;SDS011;3050;42.660;23.276;2023-12-29T02:07:12;18.03;;;7.13;;
6043;SDS011;3050;42.660;23.276;2023-12-29T02:09:40;14.63;;;7.53;;
6043;SDS011;3050;42.660;23.276;2023-12-29T02:12:10;13.50;;;7.60;;
6043;SDS011;3050;42.660;23.276;2023-12-29T02:14:41;10.97;;;5.80;;
6043;SDS011;3050;42.660;23.276;2023-12-29T02:17:08;12.83;;;6.30;;
6043;SDS011;3050;42.660;23.276;2023-12-29T02:19:42;14.23;;;7.93;;
6043;SDS011;3050;42.660;23.276;2023-12-29T02:22:10;8.60;;;5.40;;
6043;SDS011;3050;42.660;23.276;2023-12-29T02:24:39;7.57;;;5.27;;
6043;SDS011;3050;42.660;23.276;2023-12-29T02:27:15;9.83;;;5.33;;
6043;SDS011;3050;42.660;23.276;2023-12-29T02:29:48;6.93;;;5.47;;
6043;SDS011;3050;42.660;23.276;2023-12-29T02:32:18;16.20;;;6.93;;
6043;SDS011;3050;42.660;23.276;2023-12-29T02:34:47;22.97;;;13.13;;
6043;SDS011;3050;42.660;23.276;2023-12-29T02:37:16;17.73;;;8.80;;
6043;SDS011;3050;42.660;23.276;2023-12-29T02:39:47;11.87;;;7.63;;
6043;SDS011;3050;42.660;23.276;2023-12-29T02:42:17;13.73;;;7.57;;
6043;SDS011;3050;42.660;23.276;2023-12-29T02:44:45;13.67;;;8.63;;
6043;SDS011;3050;42.660;23.276;2023-12-29T02:47:14;14.40;;;7.63;;
6043;SDS011;3050;42.660;23.276;2023-12-29T02:49:47;12.27;;;6.67;;
6043;SDS011;3050;42.660;23.276;2023-12-29T02:52:16;14.07;;;8.50;;
6043;SDS011;3050;42.660;23.276;2023-12-29T02:54:45;12.63;;;8.60;;
6043;SDS011;3050;42.660;23.276;2023-12-29T02:57:13;20.23;;;10.33;;
6043;SDS011;3050;42.660;23.276;2023-12-29T02:59:46;33.47;;;13.87;;
6043;SDS011;3050;42.660;23.276;2023-12-29T03:02:13;24.33;;;11.63;;
6043;SDS011;3050;42.660;23.276;2023-12-29T03:04:43;15.07;;;8.70;;
6043;SDS011;3050;42.660;23.276;2023-12-29T03:07:12;18.47;;;9.37;;
6043;SDS011;3050;42.660;23.276;2023-12-29T03:09:41;17.23;;;9.00;;
6043;SDS011;3050;42.660;23.276;2023-12-29T03:12:10;21.77;;;8.47;;
6043;SDS011;3050;42.660;23.276;2023-12-29T03:14:41;9.00;;;7.20;;
6043;SDS011;3050;42.660;23.276;2023-12-29T03:17:14;29.03;;;16.87;;
6043;SDS011;3050;42.660;23.276;2023-12-29T03:19:41;21.10;;;10.33;;
6043;SDS011;3050;42.660;23.276;2023-12-29T03:22:13;15.50;;;9.13;;
6043;SDS011;3050;42.660;23.276;2023-12-29T03:24:44;14.87;;;9.47;;
6043;SDS011;3050;42.660;23.276;2023-12-29T03:27:14;23.33;;;11.33;;
6043;SDS011;3050;42.660;23.276;2023-12-29T03:29:43;11.80;;;7.40;;
6043;SDS011;3050;42.660;23.276;2023-12-29T03:32:16;11.33;;;6.33;;
6043;SDS011;3050;42.660;23.276;2023-12-29T03:34:44;18.17;;;6.30;;
6043;SDS011;3050;42.660;23.276;2023-12-29T03:37:14;11.10;;;6.87;;
6043;SDS011;3050;42.660;23.276;2023-12-29T03:39:45;14.03;;;8.13;;
6043;SDS011;3050;42.660;23.276;2023-12-29T03:42:16;12.27;;;7.10;;
6043;SDS011;3050;42.660;23.276;2023-12-29T03:44:44;8.80;;;6.23;;
6043;SDS011;3050;42.660;23.276;2023-12-29T03:47:14;17.07;;;8.53;;
6043;SDS011;3050;42.660;23.276;2023-12-29T03:49:47;12.87;;;8.40;;
6043;SDS011;3050;42.660;23.276;2023-12-29T03:52:13;19.07;;;8.40;;
6043;SDS011;3050;42.660;23.276;2023-12-29T03:54:42;11.37;;;7.97;;
6043;SDS011;3050;42.660;23.276;2023-12-29T03:57:12;6.50;;;5.63;;
6043;SDS011;3050;42.660;23.276;2023-12-29T03:59:39;11.23;;;7.27;;
6043;SDS011;3050;42.660;23.276;2023-12-29T04:02:08;15.97;;;7.53;;
6043;SDS011;3050;42.660;23.276;2023-12-29T04:04:39;15.63;;;9.17;;
6043;SDS011;3050;42.660;23.276;2023-12-29T04:07:12;10.20;;;6.80;;
6043;SDS011;3050;42.660;23.276;2023-12-29T04:09:39;11.27;;;6.23;;
6043;SDS011;3050;42.660;23.276;2023-12-29T04:12:10;9.93;;;5.33;;
6043;SDS011;3050;42.660;23.276;2023-12-29T04:14:38;10.13;;;5.00;;
6043;SDS011;3050;42.660;23.276;2023-12-29T04:17:07;12.50;;;6.83;;
6043;SDS011;3050;42.660;23.276;2023-12-29T04:19:40;7.57;;;4.93;;
6043;SDS011;3050;42.660;23.276;2023-12-29T04:22:08;6.30;;;5.50;;
6043;SDS011;3050;42.660;23.276;2023-12-29T04:24:40;9.30;;;6.23;;
6043;SDS011;3050;42.660;23.276;2023-12-29T04:27:09;27.90;;;16.27;;
6043;SDS011;3050;42.660;23.276;2023-12-29T04:29:37;19.83;;;11.67;;
6043;SDS011;3050;42.660;23.276;2023-12-29T04:32:07;20.93;;;7.63;;
6043;SDS011;3050;42.660;23.276;2023-12-29T04:34:36;13.50;;;9.43;;
6043;SDS011;3050;42.660;23.276;2023-12-29T04:37:04;9.13;;;6.33;;
6043;SDS011;3050;42.660;23.276;2023-12-29T04:39:33;6.53;;;4.30;;
6043;SDS011;3050;42.660;23.276;2023-12-29T04:42:03;6.17;;;5.07;;
6043;SDS011;3050;42.660;23.276;2023-12-29T04:44:30;5.93;;;4.13;;
6043;SDS011;3050;42.660;23.276;2023-12-29T04:47:00;14.60;;;5.50;;
6043;SDS011;3050;42.660;23.276;2023-12-29T04:49:32;16.27;;;4.67;;
6043;SDS011;3050;42.660;23.276;2023-12-29T04:52:01;14.07;;;5.90;;
6043;SDS011;3050;42.660;23.276;2023-12-29T04:54:29;9.80;;;5.03;;
6043;SDS011;3050;42.660;23.276;2023-12-29T04:56:57;13.37;;;6.10;;
6043;SDS011;3050;42.660;23.276;2023-12-29T04:59:35;11.43;;;6.07;;
6043;SDS011;3050;42.660;23.276;2023-12-29T05:02:04;10.07;;;8.27;;
6043;SDS011;3050;42.660;23.276;2023-12-29T05:04:32;10.27;;;4.97;;
6043;SDS011;3050;42.660;23.276;2023-12-29T05:07:00;12.50;;;4.80;;
6043;SDS011;3050;42.660;23.276;2023-12-29T05:09:29;11.63;;;5.27;;
6043;SDS011;3050;42.660;23.276;2023-12-29T05:11:58;6.90;;;5.60;;
6043;SDS011;3050;42.660;23.276;2023-12-29T05:14:26;9.53;;;5.43;;
6043;SDS011;3050;42.660;23.276;2023-12-29T05:16:58;11.03;;;7.10;;
6043;SDS011;3050;42.660;23.276;2023-12-29T05:19:26;10.03;;;5.43;;
6043;SDS011;3050;42.660;23.276;2023-12-29T05:21:55;17.63;;;6.83;;
6043;SDS011;3050;42.660;23.276;2023-12-29T05:24:24;12.33;;;7.13;;
6043;SDS011;3050;42.660;23.276;2023-12-29T05:26:52;5.90;;;4.63;;
6043;SDS011;3050;42.660;23.276;2023-12-29T05:29:21;10.13;;;7.13;;
6043;SDS011;3050;42.660;23.276;2023-12-29T05:31:51;11.10;;;5.73;;
6043;SDS011;3050;42.660;23.276;2023-12-29T05:34:24;10.27;;;6.40;;
6043;SDS011;3050;42.660;23.276;2023-12-29T05:36:51;12.70;;;7.17;;
6043;SDS011;3050;42.660;23.276;2023-12-29T05:39:20;15.03;;;6.37;;
6043;SDS011;3050;42.660;23.276;2023-12-29T05:41:51;14.70;;;6.37;;
6043;SDS011;3050;42.660;23.276;2023-12-29T05:44:20;7.70;;;5.07;;
6043;SDS011;3050;42.660;23.276;2023-12-29T05:46:50;17.93;;;6.63;;
6043;SDS011;3050;42.660;23.276;2023-12-29T05:49:18;7.63;;;4.90;;
6043;SDS011;3050;42.660;23.276;2023-12-29T05:51:51;13.83;;;5.80;;
6043;SDS011;3050;42.660;23.276;2023-12-29T05:54:18;5.73;;;5.00;;
6043;SDS011;3050;42.660;23.276;2023-12-29T05:56:46;12.27;;;7.07;;
6043;SDS011;3050;42.660;23.276;2023-12-29T05:59:20;15.43;;;6.40;;
6043;SDS011;3050;42.660;23.276;2023-12-29T06:01:50;12.93;;;6.63;;
6043;SDS011;3050;42.660;23.276;2023-12-29T06:04:22;10.57;;;6.30;;
6043;SDS011;3050;42.660;23.276;2023-12-29T06:06:55;13.43;;;7.37;;
6043;SDS011;3050;42.660;23.276;2023-12-29T06:09:23;14.33;;;8.07;;
6043;SDS011;3050;42.660;23.276;2023-12-29T06:11:54;8.37;;;5.77;;
6043;SDS011;3050;42.660;23.276;2023-12-29T06:14:22;25.60;;;11.83;;
6043;SDS011;3050;42.660;23.276;2023-12-29T06:16:52;23.57;;;11.90;;
6043;SDS011;3050;42.660;23.276;2023-12-29T06:19:20;13.40;;;7.23;;
6043;SDS011;3050;42.660;23.276;2023-12-29T06:21:47;21.70;;;9.67;;
6043;SDS011;3050;42.660;23.276;2023-12-29T06:24:21;18.80;;;10.07;;
6043;SDS011;3050;42.660;23.276;2023-12-29T06:26:48;19.50;;;8.43;;
6043;SDS011;3050;42.660;23.276;2023-12-29T06:29:17;16.77;;;9.50;;
6043;SDS011;3050;42.660;23.276;2023-12-29T06:31:48;17.80;;;7.90;;
6043;SDS011;3050;42.660;23.276;2023-12-29T06:34:16;20.93;;;10.37;;
6043;SDS011;3050;42.660;23.276;2023-12-29T06:36:46;14.50;;;9.57;;
6043;SDS011;3050;42.660;23.276;2023-12-29T06:39:15;28.40;;;14.47;;
6043;SDS011;3050;42.660;23.276;2023-12-29T06:41:46;26.27;;;11.80;;
6043;SDS011;3050;42.660;23.276;2023-12-29T06:44:14;21.20;;;11.77;;
6043;SDS011;3050;42.660;23.276;2023-12-29T06:46:42;23.47;;;11.07;;
6043;SDS011;3050;42.660;23.276;2023-12-29T06:49:12;19.23;;;11.03;;
6043;SDS011;3050;42.660;23.276;2023-12-29T06:51:40;17.87;;;10.50;;
6043;SDS011;3050;42.660;23.276;2023-12-29T06:54:08;22.00;;;10.93;;
6043;SDS011;3050;42.660;23.276;2023-12-29T06:56:37;17.67;;;9.40;;
6043;SDS011;3050;42.660;23.276;2023-12-29T06:59:09;23.47;;;12.33;;
6043;SDS011;3050;42.660;23.276;2023-12-29T07:01:38;28.13;;;14.43;;
6043;SDS011;3050;42.660;23.276;2023-12-29T07:04:08;37.73;;;16.10;;
6043;SDS011;3050;42.660;23.276;2023-12-29T07:06:38;42.37;;;20.57;;
6043;SDS011;3050;42.660;23.276;2023-12-29T07:09:08;45.67;;;20.37;;
6043;SDS011;3050;42.660;23.276;2023-12-29T07:11:36;45.40;;;21.87;;
6043;SDS011;3050;42.660;23.276;2023-12-29T07:14:05;39.40;;;20.23;;
6043;SDS011;3050;42.660;23.276;2023-12-29T07:16:35;46.90;;;21.37;;
6043;SDS011;3050;42.660;23.276;2023-12-29T07:19:02;62.73;;;23.20;;
6043;SDS011;3050;42.660;23.276;2023-12-29T07:21:32;50.73;;;24.20;;
6043;SDS011;3050;42.660;23.276;2023-12-29T07:23:59;57.37;;;23.80;;
6043;SDS011;3050;42.660;23.276;2023-12-29T07:26:32;62.20;;;23.20;;
6043;SDS011;3050;42.660;23.276;2023-12-29T07:29:02;47.73;;;21.73;;
6043;SDS011;3050;42.660;23.276;2023-12-29T07:31:29;55.40;;;22.00;;
6043;SDS011;3050;42.660;23.276;2023-12-29T07:34:03;47.77;;;21.00;;
6043;SDS011;3050;42.660;23.276;2023-12-29T07:36:30;41.33;;;21.10;;
6043;SDS011;3050;42.660;23.276;2023-12-29T07:39:01;47.37;;;22.10;;
6043;SDS011;3050;42.660;23.276;2023-12-29T07:41:30;51.07;;;23.80;;
6043;SDS011;3050;42.660;23.276;2023-12-29T07:44:04;48.90;;;24.50;;
6043;SDS011;3050;42.660;23.276;2023-12-29T07:46:36;40.47;;;21.30;;
6043;SDS011;3050;42.660;23.276;2023-12-29T07:49:09;51.00;;;24.03;;
6043;SDS011;3050;42.660;23.276;2023-12-29T07:51:39;39.87;;;21.10;;
6043;SDS011;3050;42.660;23.276;2023-12-29T07:54:11;40.37;;;19.53;;
6043;SDS011;3050;42.660;23.276;2023-12-29T07:56:39;40.73;;;20.83;;
6043;SDS011;3050;42.660;23.276;2023-12-29T07:59:08;33.63;;;18.83;;
6043;SDS011;3050;42.660;23.276;2023-12-29T08:01:38;38.20;;;19.37;;
6043;SDS011;3050;42.660;23.276;2023-12-29T08:04:12;27.13;;;16.30;;
6043;SDS011;3050;42.660;23.276;2023-12-29T08:06:41;33.03;;;19.20;;
6043;SDS011;3050;42.660;23.276;2023-12-29T08:09:12;46.10;;;21.30;;
6043;SDS011;3050;42.660;23.276;2023-12-29T08:11:42;43.63;;;22.83;;
6043;SDS011;3050;42.660;23.276;2023-12-29T08:14:12;50.70;;;21.90;;
6043;SDS011;3050;42.660;23.276;2023-12-29T08:16:41;41.97;;;20.97;;
6043;SDS011;3050;42.660;23.276;2023-12-29T08:19:11;45.00;;;21.87;;
6043;SDS011;3050;42.660;23.276;2023-12-29T08:21:43;43.07;;;21.43;;
6043;SDS011;3050;42.660;23.276;2023-12-29T08:24:14;35.50;;;19.20;;
6043;SDS011;3050;42.660;23.276;2023-12-29T08:26:44;44.40;;;21.07;;
6043;SDS011;3050;42.660;23.276;2023-12-29T08:29:12;39.50;;;21.67;;
6043;SDS011;3050;42.660;23.276;2023-12-29T08:31:43;41.83;;;20.27;;
6043;SDS011;3050;42.660;23.276;2023-12-29T08:34:17;44.37;;;23.70;;
6043;SDS011;3050;42.660;23.276;2023-12-29T08:36:45;52.63;;;24.23;;
6043;SDS011;3050;42.660;23.276;2023-12-29T08:39:15;53.30;;;24.00;;
6043;SDS011;3050;42.660;23.276;2023-12-29T08:41:44;47.53;;;23.63;;
6043;SDS011;3050;42.660;23.276;2023-12-29T08:44:15;50.27;;;27.50;;
6043;SDS011;3050;42.660;23.276;2023-12-29T08:46:44;56.70;;;28.83;;
6043;SDS011;3050;42.660;23.276;2023-12-29T08:49:21;63.80;;;29.07;;
6043;SDS011;3050;42.660;23.276;2023-12-29T08:51:50;58.43;;;30.03;;
6043;SDS011;3050;42.660;23.276;2023-12-29T08:54:17;58.70;;;28.70;;
6043;SDS011;3050;42.660;23.276;2023-12-29T08:56:45;51.10;;;27.30;;
6043;SDS011;3050;42.660;23.276;2023-12-29T08:59:17;57.93;;;26.83;;
6043;SDS011;3050;42.660;23.276;2023-12-29T09:01:47;52.20;;;27.33;;
6043;SDS011;3050;42.660;23.276;2023-12-29T09:04:20;50.43;;;25.93;;
6043;SDS011;3050;42.660;23.276;2023-12-29T09:06:48;58.67;;;28.60;;
6043;SDS011;3050;42.660;23.276;2023-12-29T09:09:18;58.53;;;28.70;;
6043;SDS011;3050;42.660;23.276;2023-12-29T09:11:45;52.03;;;27.53;;
6043;SDS011;3050;42.660;23.276;2023-12-29T09:14:13;55.50;;;29.03;;
6043;SDS011;3050;42.660;23.276;2023-12-29T09:16:42;55.13;;;27.13;;
6043;SDS011;3050;42.660;23.276;2023-12-29T09:19:13;55.97;;;28.73;;
6043;SDS011;3050;42.660;23.276;2023-12-29T09:21:45;60.97;;;29.63;;
6043;SDS011;3050;42.660;23.276;2023-12-29T09:24:13;60.17;;;28.37;;
6043;SDS011;3050;42.660;23.276;2023-12-29T09:26:41;63.07;;;28.43;;
6043;SDS011;3050;42.660;23.276;2023-12-29T09:29:10;55.20;;;27.00;;
6043;SDS011;3050;42.660;23.276;2023-12-29T09:31:39;54.33;;;26.80;;
6043;SDS011;3050;42.660;23.276;2023-12-29T09:34:08;54.93;;;27.83;;
6043;SDS011;3050;42.660;23.276;2023-12-29T09:36:39;55.03;;;27.03;;
6043;SDS011;3050;42.660;23.276;2023-12-29T09:39:49;53.43;;;26.50;;
6043;SDS011;3050;42.660;23.276;2023-12-29T09:42:20;54.77;;;25.70;;
6043;SDS011;3050;42.660;23.276;2023-12-29T09:44:50;46.43;;;22.80;;
6043;SDS011;3050;42.660;23.276;2023-12-29T09:47:19;42.63;;;21.43;;
6043;SDS011;3050;42.660;23.276;2023-12-29T09:49:51;48.87;;;21.60;;
6043;SDS011;3050;42.660;23.276;2023-12-29T09:52:25;46.50;;;21.30;;
6043;SDS011;3050;42.660;23.276;2023-12-29T09:54:58;34.63;;;18.70;;
6043;SDS011;3050;42.660;23.276;2023-12-29T09:57:27;32.60;;;18.40;;
6043;SDS011;3050;42.660;23.276;2023-12-29T09:59:57;27.70;;;16.03;;
6043;SDS011;3050;42.660;23.276;2023-12-29T10:02:27;36.67;;;17.53;;
6043;SDS011;3050;42.660;23.276;2023-12-29T10:04:56;34.37;;;18.43;;
6043;SDS011;3050;42.660;23.276;2023-12-29T10:07:27;36.80;;;19.50;;
6043;SDS011;3050;42.660;23.276;2023-12-29T10:10:04;34.63;;;17.77;;
6043;SDS011;3050;42.660;23.276;2023-12-29T10:12:33;33.93;;;17.27;;
6043;SDS011;3050;42.660;23.276;2023-12-29T10:15:12;29.87;;;16.90;;
6043;SDS011;3050;42.660;23.276;2023-12-29T10:17:43;31.43;;;17.30;;
6043;SDS011;3050;42.660;23.276;2023-12-29T10:20:15;36.60;;;18.43;;
6043;SDS011;3050;42.660;23.276;2023-12-29T10:22:50;29.57;;;16.20;;
6043;SDS011;3050;42.660;23.276;2023-12-29T10:25:24;30.67;;;18.17;;
6043;SDS011;3050;42.660;23.276;2023-12-29T10:27:59;33.10;;;17.73;;
6043;SDS011;3050;42.660;23.276;2023-12-29T10:30:58;27.03;;;16.67;;
6043;SDS011;3050;42.660;23.276;2023-12-29T10:33:27;39.07;;;17.63;;
6043;SDS011;3050;42.660;23.276;2023-12-29T10:35:57;31.30;;;16.90;;
6043;SDS011;3050;42.660;23.276;2023-12-29T10:38:29;30.43;;;17.33;;
6043;SDS011;3050;42.660;23.276;2023-12-29T10:41:18;27.93;;;16.57;;
6043;SDS011;3050;42.660;23.276;2023-12-29T10:43:46;27.70;;;16.00;;
6043;SDS011;3050;42.660;23.276;2023-12-29T10:46:20;23.97;;;15.07;;
6043;SDS011;3050;42.660;23.276;2023-12-29T10:48:53;29.20;;;16.80;;
6043;SDS011;3050;42.660;23.276;2023-12-29T10:53:59;37.63;;;17.80;;
6043;SDS011;3050;42.660;23.276;2023-12-29T10:56:30;34.27;;;16.53;;
6043;SDS011;3050;42.660;23.276;2023-12-29T10:58:59;33.73;;;17.10;;
6043;SDS011;3050;42.660;23.276;2023-12-29T11:01:33;31.27;;;17.47;;
6043;SDS011;3050;42.660;23.276;2023-12-29T11:04:04;39.80;;;18.03;;
6043;SDS011;3050;42.660;23.276;2023-12-29T11:06:39;28.77;;;16.93;;
6043;SDS011;3050;42.660;23.276;2023-12-29T11:09:07;36.70;;;17.80;;
6043;SDS011;3050;42.660;23.276;2023-12-29T11:11:39;28.77;;;16.60;;
6043;SDS011;3050;42.660;23.276;2023-12-29T11:14:07;33.80;;;18.00;;
6043;SDS011;3050;42.660;23.276;2023-12-29T11:16:37;31.17;;;18.00;;
6043;SDS011;3050;42.660;23.276;2023-12-29T11:19:05;37.27;;;17.90;;
6043;SDS011;3050;42.660;23.276;2023-12-29T11:21:36;36.80;;;19.03;;
6043;SDS011;3050;42.660;23.276;2023-12-29T11:24:07;33.43;;;17.77;;
6043;SDS011;3050;42.660;23.276;2023-12-29T11:26:39;33.80;;;18.93;;
6043;SDS011;3050;42.660;23.276;2023-12-29T11:29:10;39.53;;;19.70;;
6043;SDS011;3050;42.660;23.276;2023-12-29T11:31:43;32.17;;;17.67;;
6043;SDS011;3050;42.660;23.276;2023-12-29T11:34:14;39.73;;;20.13;;
6043;SDS011;3050;42.660;23.276;2023-12-29T11:36:45;38.10;;;20.03;;
6043;SDS011;3050;42.660;23.276;2023-12-29T11:39:16;34.63;;;19.80;;
6043;SDS011;3050;42.660;23.276;2023-12-29T11:41:59;35.90;;;19.40;;
6043;SDS011;3050;42.660;23.276;2023-12-29T11:44:28;38.17;;;20.93;;
6043;SDS011;3050;42.660;23.276;2023-12-29T11:47:00;43.03;;;21.23;;
6043;SDS011;3050;42.660;23.276;2023-12-29T11:49:35;40.00;;;21.23;;
6043;SDS011;3050;42.660;23.276;2023-12-29T11:52:39;37.17;;;21.33;;
6043;SDS011;3050;42.660;23.276;2023-12-29T11:55:11;38.07;;;20.13;;
6043;SDS011;3050;42.660;23.276;2023-12-29T11:57:41;33.70;;;19.87;;
6043;SDS011;3050;42.660;23.276;2023-12-29T12:00:11;35.40;;;19.73;;
6043;SDS011;3050;42.660;23.276;2023-12-29T12:02:43;46.63;;;20.57;;
6043;SDS011;3050;42.660;23.276;2023-12-29T12:05:20;39.80;;;20.77;;
6043;SDS011;3050;42.660;23.276;2023-12-29T12:08:07;44.60;;;21.37;;
6043;SDS011;3050;42.660;23.276;2023-12-29T12:10:39;43.10;;;22.00;;
6043;SDS011;3050;42.660;23.276;2023-12-29T12:13:11;45.77;;;22.07;;
6043;SDS011;3050;42.660;23.276;2023-12-29T12:15:40;40.33;;;21.80;;
6043;SDS011;3050;42.660;23.276;2023-12-29T12:18:10;42.87;;;21.97;;
6043;SDS011;3050;42.660;23.276;2023-12-29T12:20:39;42.33;;;21.13;;
6043;SDS011;3050;42.660;23.276;2023-12-29T12:23:09;41.47;;;20.23;;
6043;SDS011;3050;42.660;23.276;2023-12-29T12:25:39;51.13;;;22.07;;
6043;SDS011;3050;42.660;23.276;2023-12-29T12:28:07;45.97;;;21.53;;
6043;SDS011;3050;42.660;23.276;2023-12-29T12:30:37;128.77;;;61.83;;
6043;SDS011;3050;42.660;23.276;2023-12-29T12:33:04;52.77;;;24.77;;
6043;SDS011;3050;42.660;23.276;2023-12-29T12:35:40;44.70;;;21.63;;
6043;SDS011;3050;42.660;23.276;2023-12-29T12:38:13;35.17;;;16.93;;
6043;SDS011;3050;42.660;23.276;2023-12-29T12:40:46;29.33;;;15.50;;
6043;SDS011;3050;42.660;23.276;2023-12-29T12:43:20;35.33;;;16.10;;
6043;SDS011;3050;42.660;23.276;2023-12-29T12:51:47;15.90;;;9.90;;
6043;SDS011;3050;42.660;23.276;2023-12-29T12:54:18;24.57;;;10.50;;
6043;SDS011;3050;42.660;23.276;2023-12-29T12:56:50;16.47;;;7.57;;
6043;SDS011;3050;42.660;23.276;2023-12-29T12:59:21;12.80;;;7.27;;
6043;SDS011;3050;42.660;23.276;2023-12-29T13:01:50;8.13;;;5.63;;
6043;SDS011;3050;42.660;23.276;2023-12-29T13:04:22;10.37;;;6.03;;
6043;SDS011;3050;42.660;23.276;2023-12-29T13:07:11;7.53;;;4.97;;
6043;SDS011;3050;42.660;23.276;2023-12-29T13:10:03;6.20;;;4.87;;
6043;SDS011;3050;42.660;23.276;2023-12-29T13:12:34;6.63;;;4.63;;
6043;SDS011;3050;42.660;23.276;2023-12-29T13:15:05;12.07;;;4.50;;
6043;SDS011;3050;42.660;23.276;2023-12-29T13:17:38;9.80;;;4.03;;
6043;SDS011;3050;42.660;23.276;2023-12-29T13:20:27;7.23;;;4.90;;
6043;SDS011;3050;42.660;23.276;2023-12-29T13:24:52;7.90;;;4.67;;
6043;SDS011;3050;42.660;23.276;2023-12-29T13:27:57;9.00;;;4.10;;
6043;SDS011;3050;42.660;23.276;2023-12-29T13:30:26;11.37;;;4.43;;
6043;SDS011;3050;42.660;23.276;2023-12-29T13:33:07;12.33;;;5.27;;
6043;SDS011;3050;42.660;23.276;2023-12-29T13:35:51;7.57;;;5.30;;
6043;SDS011;3050;42.660;23.276;2023-12-29T13:38:33;8.87;;;6.00;;
6043;SDS011;3050;42.660;23.276;2023-12-29T13:41:04;9.97;;;6.30;;
6043;SDS011;3050;42.660;23.276;2023-12-29T13:43:39;10.40;;;6.67;;
6043;SDS011;3050;42.660;23.276;2023-12-29T13:46:08;11.07;;;5.77;;
6043;SDS011;3050;42.660;23.276;2023-12-29T13:48:40;10.50;;;5.87;;
6043;SDS011;3050;42.660;23.276;2023-12-29T13:51:09;35.50;;;17.23;;
6043;SDS011;3050;42.660;23.276;2023-12-29T13:53:40;19.17;;;9.03;;
6043;SDS011;3050;42.660;23.276;2023-12-29T13:56:20;8.50;;;5.97;;
6043;SDS011;3050;42.660;23.276;2023-12-29T13:58:53;11.47;;;6.50;;
6043;SDS011;3050;42.660;23.276;2023-12-29T14:01:34;10.30;;;6.77;;
6043;SDS011;3050;42.660;23.276;2023-12-29T14:04:03;9.77;;;6.83;;
6043;SDS011;3050;42.660;23.276;2023-12-29T14:06:49;9.87;;;6.93;;
6043;SDS011;3050;42.660;23.276;2023-12-29T14:09:21;5.73;;;5.23;;
6043;SDS011;3050;42.660;23.276;2023-12-29T14:12:16;7.97;;;4.37;;
6043;SDS011;3050;42.660;23.276;2023-12-29T14:15:10;7.90;;;4.53;;
6043;SDS011;3050;42.660;23.276;2023-12-29T14:17:39;15.00;;;4.10;;
6043;SDS011;3050;42.660;23.276;2023-12-29T14:20:14;8.73;;;4.80;;
6043;SDS011;3050;42.660;23.276;2023-12-29T14:23:06;4.17;;;3.87;;
6043;SDS011;3050;42.660;23.276;2023-12-29T14:25:44;13.37;;;5.73;;
6043;SDS011;3050;42.660;23.276;2023-12-29T14:28:20;7.47;;;4.57;;
6043;SDS011;3050;42.660;23.276;2023-12-29T14:30:48;16.80;;;8.10;;
6043;SDS011;3050;42.660;23.276;2023-12-29T14:33:16;34.10;;;15.00;;
6043;SDS011;3050;42.660;23.276;2023-12-29T14:35:46;28.77;;;12.57;;
6043;SDS011;3050;42.660;23.276;2023-12-29T14:38:19;9.47;;;4.97;;
6043;SDS011;3050;42.660;23.276;2023-12-29T14:40:47;9.57;;;4.70;;
6043;SDS011;3050;42.660;23.276;2023-12-29T14:43:19;7.23;;;4.47;;
6043;SDS011;3050;42.660;23.276;2023-12-29T14:45:46;9.93;;;4.63;;
6043;SDS011;3050;42.660;23.276;2023-12-29T14:48:18;11.73;;;4.40;;
6043;SDS011;3050;42.660;23.276;2023-12-29T14:50:51;21.27;;;8.87;;
6043;SDS011;3050;42.660;23.276;2023-12-29T14:53:20;18.07;;;9.13;;
6043;SDS011;3050;42.660;23.276;2023-12-29T14:55:50;12.03;;;5.47;;
6043;SDS011;3050;42.660;23.276;2023-12-29T14:58:21;13.77;;;5.93;;
6043;SDS011;3050;42.660;23.276;2023-12-29T15:00:49;7.53;;;4.90;;
6043;SDS011;3050;42.660;23.276;2023-12-29T15:03:17;14.27;;;5.83;;
6043;SDS011;3050;42.660;23.276;2023-12-29T15:05:49;10.80;;;5.43;;
6043;SDS011;3050;42.660;23.276;2023-12-29T15:08:19;17.37;;;7.43;;
6043;SDS011;3050;42.660;23.276;2023-12-29T15:10:48;18.43;;;8.33;;
6043;SDS011;3050;42.660;23.276;2023-12-29T15:13:16;19.97;;;9.90;;
6043;SDS011;3050;42.660;23.276;2023-12-29T15:15:48;17.23;;;9.33;;
6043;SDS011;3050;42.660;23.276;2023-12-29T15:18:15;17.70;;;7.50;;